sensor_id;sensor_type;location;lat;lon;timestamp;pressure;altitude;pressure_sealevel;temperature;humidity
44765;BME280;30484;52.382;5.260;2023-05-19T00:01:05;102948.97;;;12.05;100.00
44765;BME280;30484;52.382;5.260;2023-05-19T00:03:36;102940.66;;;12.17;100.00
44765;BME280;30484;52.382;5.260;2023-05-19T00:06:07;102938.97;;;12.13;100.00
44765;BME280;30484;52.382;5.260;2023-05-19T00:08:37;102935.31;;;12.17;100.00
44765;BME280;30484;52.382;5.260;2023-05-19T00:11:07;102931.81;;;12.14;100.00
44765;BME280;30484;52.382;5.260;2023-05-19T00:13:38;102935.44;;;12.11;100.00
44765;BME280;30484;52.382;5.260;2023-05-19T00:16:08;102931.06;;;12.08;100.00
44765;BME280;30484;52.382;5.260;2023-05-19T00:18:37;102929.41;;;12.03;100.00
44765;BME280;30484;52.382;5.260;2023-05-19T00:21:06;102931.28;;;11.98;100.00
44765;BME280;30484;52.382;5.260;2023-05-19T00:23:35;102938.09;;;12.11;100.00
44765;BME280;30484;52.382;5.260;2023-05-19T00:26:04;102932.06;;;12.03;100.00
44765;BME280;30484;52.382;5.260;2023-05-19T00:28:37;102923.38;;;11.91;100.00
44765;BME280;30484;52.382;5.260;2023-05-19T00:31:06;102923.16;;;12.01;100.00
44765;BME280;30484;52.382;5.260;2023-05-19T00:33:35;102932.53;;;11.80;100.00
44765;BME280;30484;52.382;5.260;2023-05-19T00:36:04;102926.84;;;11.97;100.00
44765;BME280;30484;52.382;5.260;2023-05-19T00:38:35;102928.19;;;11.74;100.00
44765;BME280;30484;52.382;5.260;2023-05-19T00:41:05;102927.13;;;11.81;100.00
44765;BME280;30484;52.382;5.260;2023-05-19T00:43:34;102933.53;;;11.74;100.00
44765;BME280;30484;52.382;5.260;2023-05-19T00:46:05;102915.47;;;11.84;100.00
44765;BME280;30484;52.382;5.260;2023-05-19T00:48:34;102930.44;;;11.53;100.00
44765;BME280;30484;52.382;5.260;2023-05-19T00:51:03;102924.53;;;11.78;100.00
44765;BME280;30484;52.382;5.260;2023-05-19T00:53:33;102930.66;;;11.85;100.00
44765;BME280;30484;52.382;5.260;2023-05-19T00:56:03;102918.50;;;11.68;100.00
44765;BME280;30484;52.382;5.260;2023-05-19T00:58:32;102928.84;;;11.85;100.00
44765;BME280;30484;52.382;5.260;2023-05-19T01:01:04;102915.66;;;11.76;100.00
44765;BME280;30484;52.382;5.260;2023-05-19T01:03:35;102927.09;;;11.84;100.00
44765;BME280;30484;52.382;5.260;2023-05-19T01:06:07;102920.00;;;11.82;100.00
44765;BME280;30484;52.382;5.260;2023-05-19T01:08:40;102932.31;;;11.48;100.00
44765;BME280;30484;52.382;5.260;2023-05-19T01:11:10;102928.19;;;11.74;100.00
44765;BME280;30484;52.382;5.260;2023-05-19T01:13:39;102924.81;;;11.66;100.00
44765;BME280;30484;52.382;5.260;2023-05-19T01:16:15;102919.47;;;11.66;100.00
44765;BME280;30484;52.382;5.260;2023-05-19T01:18:52;102915.88;;;11.65;100.00
44765;BME280;30484;52.382;5.260;2023-05-19T01:22:21;102913.13;;;11.68;100.00
44765;BME280;30484;52.382;5.260;2023-05-19T01:28:37;102914.69;;;11.38;100.00
44765;BME280;30484;52.382;5.260;2023-05-19T01:31:11;102910.75;;;11.56;100.00
44765;BME280;30484;52.382;5.260;2023-05-19T01:33:41;102909.78;;;11.60;100.00
44765;BME280;30484;52.382;5.260;2023-05-19T01:36:11;102901.00;;;11.52;100.00
44765;BME280;30484;52.382;5.260;2023-05-19T01:38:42;102896.63;;;11.48;100.00
44765;BME280;30484;52.382;5.260;2023-05-19T01:41:12;102901.84;;;11.12;100.00
44765;BME280;30484;52.382;5.260;2023-05-19T01:43:42;102899.81;;;11.21;100.00
44765;BME280;30484;52.382;5.260;2023-05-19T01:46:14;102903.16;;;11.33;100.00
44765;BME280;30484;52.382;5.260;2023-05-19T01:48:44;102884.50;;;11.30;100.00
44765;BME280;30484;52.382;5.260;2023-05-19T01:51:12;102892.72;;;11.20;100.00
44765;BME280;30484;52.382;5.260;2023-05-19T01:53:41;102896.78;;;11.40;100.00
44765;BME280;30484;52.382;5.260;2023-05-19T01:56:12;102883.44;;;11.38;100.00
44765;BME280;30484;52.382;5.260;2023-05-19T01:58:47;102884.66;;;11.22;100.00
44765;BME280;30484;52.382;5.260;2023-05-19T02:01:29;102881.91;;;11.27;100.00
44765;BME280;30484;52.382;5.260;2023-05-19T02:04:19;102885.38;;;11.32;100.00
44765;BME280;30484;52.382;5.260;2023-05-19T02:06:59;102891.75;;;11.25;100.00
44765;BME280;30484;52.382;5.260;2023-05-19T02:09:37;102889.06;;;11.26;100.00
44765;BME280;30484;52.382;5.260;2023-05-19T02:12:13;102892.69;;;11.22;100.00
44765;BME280;30484;52.382;5.260;2023-05-19T02:14:53;102890.19;;;11.13;100.00
44765;BME280;30484;52.382;5.260;2023-05-19T02:17:26;102883.16;;;11.07;100.00
44765;BME280;30484;52.382;5.260;2023-05-19T02:19:59;102889.25;;;11.15;100.00
44765;BME280;30484;52.382;5.260;2023-05-19T02:22:28;102897.50;;;11.03;100.00
44765;BME280;30484;52.382;5.260;2023-05-19T02:24:58;102898.63;;;10.91;100.00
44765;BME280;30484;52.382;5.260;2023-05-19T02:27:26;102892.16;;;11.03;100.00
44765;BME280;30484;52.382;5.260;2023-05-19T02:29:56;102893.84;;;11.10;100.00
44765;BME280;30484;52.382;5.260;2023-05-19T02:32:27;102886.72;;;11.09;100.00
44765;BME280;30484;52.382;5.260;2023-05-19T02:34:57;102875.91;;;11.14;100.00
44765;BME280;30484;52.382;5.260;2023-05-19T02:37:26;102872.44;;;11.10;100.00
44765;BME280;30484;52.382;5.260;2023-05-19T02:39:56;102882.63;;;10.90;100.00
44765;BME280;30484;52.382;5.260;2023-05-19T02:42:25;102879.69;;;11.03;100.00
44765;BME280;30484;52.382;5.260;2023-05-19T02:44:56;102863.59;;;11.05;100.00
44765;BME280;30484;52.382;5.260;2023-05-19T02:47:27;102864.47;;;11.05;100.00
44765;BME280;30484;52.382;5.260;2023-05-19T02:49:57;102869.97;;;10.99;100.00
44765;BME280;30484;52.382;5.260;2023-05-19T02:52:27;102869.94;;;11.01;100.00
44765;BME280;30484;52.382;5.260;2023-05-19T02:54:57;102866.41;;;10.97;100.00
44765;BME280;30484;52.382;5.260;2023-05-19T02:57:28;102873.44;;;11.03;100.00
44765;BME280;30484;52.382;5.260;2023-05-19T02:59:58;102867.44;;;10.92;100.00
44765;BME280;30484;52.382;5.260;2023-05-19T03:02:29;102861.28;;;10.86;100.00
44765;BME280;30484;52.382;5.260;2023-05-19T03:05:00;102866.59;;;10.88;100.00
44765;BME280;30484;52.382;5.260;2023-05-19T03:07:30;102877.31;;;10.88;100.00
44765;BME280;30484;52.382;5.260;2023-05-19T03:10:00;102867.38;;;10.95;100.00
44765;BME280;30484;52.382;5.260;2023-05-19T03:12:34;102864.19;;;10.74;100.00
44765;BME280;30484;52.382;5.260;2023-05-19T03:15:17;102851.53;;;10.84;100.00
44765;BME280;30484;52.382;5.260;2023-05-19T03:17:51;102844.38;;;10.84;100.00
44765;BME280;30484;52.382;5.260;2023-05-19T03:20:21;102852.44;;;10.83;100.00
44765;BME280;30484;52.382;5.260;2023-05-19T03:22:50;102859.59;;;10.82;100.00
44765;BME280;30484;52.382;5.260;2023-05-19T03:25:19;102858.81;;;10.76;100.00
44765;BME280;30484;52.382;5.260;2023-05-19T03:27:48;102853.34;;;10.83;100.00
44765;BME280;30484;52.382;5.260;2023-05-19T03:30:16;102860.41;;;10.84;100.00
44765;BME280;30484;52.382;5.260;2023-05-19T03:32:45;102861.16;;;10.93;100.00
44765;BME280;30484;52.382;5.260;2023-05-19T03:35:16;102853.13;;;10.93;100.00
44765;BME280;30484;52.382;5.260;2023-05-19T03:37:51;102849.56;;;10.94;100.00
44765;BME280;30484;52.382;5.260;2023-05-19T03:40:19;102849.56;;;10.94;100.00
44765;BME280;30484;52.382;5.260;2023-05-19T03:42:49;102842.44;;;10.93;100.00
44765;BME280;30484;52.382;5.260;2023-05-19T03:45:17;102849.69;;;10.87;100.00
44765;BME280;30484;52.382;5.260;2023-05-19T03:47:46;102851.56;;;10.82;100.00
44765;BME280;30484;52.382;5.260;2023-05-19T03:50:16;102847.09;;;10.83;100.00
44765;BME280;30484;52.382;5.260;2023-05-19T03:52:45;102853.19;;;10.90;100.00
44765;BME280;30484;52.382;5.260;2023-05-19T03:55:15;102846.09;;;10.88;100.00
44765;BME280;30484;52.382;5.260;2023-05-19T03:57:46;102844.44;;;10.81;100.00
44765;BME280;30484;52.382;5.260;2023-05-19T04:00:15;102846.44;;;10.70;100.00
44765;BME280;30484;52.382;5.260;2023-05-19T04:02:44;102851.56;;;10.82;100.00
44765;BME280;30484;52.382;5.260;2023-05-19T04:05:15;102850.66;;;10.83;100.00
44765;BME280;30484;52.382;5.260;2023-05-19T04:07:44;102852.53;;;10.78;100.00
44765;BME280;30484;52.382;5.260;2023-05-19T04:10:13;102858.63;;;10.86;100.00
44765;BME280;30484;52.382;5.260;2023-05-19T04:12:42;102841.63;;;10.89;100.00
44765;BME280;30484;52.382;5.260;2023-05-19T04:15:11;102847.97;;;10.83;100.00
44765;BME280;30484;52.382;5.260;2023-05-19T04:17:39;102859.44;;;10.92;100.00
44765;BME280;30484;52.382;5.260;2023-05-19T04:20:10;102856.00;;;10.83;100.00
44765;BME280;30484;52.382;5.260;2023-05-19T04:22:41;102860.41;;;10.84;100.00
44765;BME280;30484;52.382;5.260;2023-05-19T04:25:10;102861.94;;;10.99;100.00
44765;BME280;30484;52.382;5.260;2023-05-19T04:27:39;102867.28;;;10.99;100.00
44765;BME280;30484;52.382;5.260;2023-05-19T04:30:09;102870.13;;;10.92;100.00
44765;BME280;30484;52.382;5.260;2023-05-19T04:32:38;102871.69;;;11.02;100.00
44765;BME280;30484;52.382;5.260;2023-05-19T04:35:08;102868.84;;;11.10;100.00
44765;BME280;30484;52.382;5.260;2023-05-19T04:37:43;102864.38;;;11.12;100.00
44765;BME280;30484;52.382;5.260;2023-05-19T04:40:13;102859.69;;;11.21;100.00
44765;BME280;30484;52.382;5.260;2023-05-19T04:42:45;102867.13;;;11.07;100.00
44765;BME280;30484;52.382;5.260;2023-05-19T04:45:16;102865.09;;;11.18;100.00
44765;BME280;30484;52.382;5.260;2023-05-19T04:47:46;102873.25;;;11.14;100.00
44765;BME280;30484;52.382;5.260;2023-05-19T04:50:16;102871.28;;;11.22;100.00
44765;BME280;30484;52.382;5.260;2023-05-19T04:52:48;102867.72;;;11.21;100.00
44765;BME280;30484;52.382;5.260;2023-05-19T04:55:17;102864.94;;;11.28;100.00
44765;BME280;30484;52.382;5.260;2023-05-19T05:03:06;102885.31;;;11.35;100.00
44765;BME280;30484;52.382;5.260;2023-05-19T05:05:37;102879.09;;;11.33;100.00
44765;BME280;30484;52.382;5.260;2023-05-19T05:08:15;102881.97;;;11.23;100.00
44765;BME280;30484;52.382;5.260;2023-05-19T05:10:50;102878.94;;;11.40;100.00
44765;BME280;30484;52.382;5.260;2023-05-19T05:13:24;102883.03;;;11.57;100.00
44765;BME280;30484;52.382;5.260;2023-05-19T05:15:56;102888.97;;;11.73;100.00
44765;BME280;30484;52.382;5.260;2023-05-19T05:18:29;102891.84;;;11.62;100.00
44765;BME280;30484;52.382;5.260;2023-05-19T05:21:02;102888.88;;;11.76;100.00
44765;BME280;30484;52.382;5.260;2023-05-19T05:23:35;102896.53;;;11.93;100.00
44765;BME280;30484;52.382;5.260;2023-05-19T05:26:15;102892.50;;;12.14;100.00
44765;BME280;30484;52.382;5.260;2023-05-19T05:28:48;102885.63;;;12.38;100.00
44765;BME280;30484;52.382;5.260;2023-05-19T05:31:19;102883.28;;;12.60;100.00
44765;BME280;30484;52.382;5.260;2023-05-19T05:33:50;102882.91;;;12.76;100.00
44765;BME280;30484;52.382;5.260;2023-05-19T05:36:20;102881.59;;;12.91;100.00
44765;BME280;30484;52.382;5.260;2023-05-19T05:38:54;102886.91;;;12.92;100.00
44765;BME280;30484;52.382;5.260;2023-05-19T05:41:26;102890.03;;;13.10;100.00
44765;BME280;30484;52.382;5.260;2023-05-19T05:44:06;102882.50;;;13.23;100.00
44765;BME280;30484;52.382;5.260;2023-05-19T05:46:45;102884.34;;;13.21;100.00
44765;BME280;30484;52.382;5.260;2023-05-19T05:49:20;102886.09;;;13.53;100.00
44765;BME280;30484;52.382;5.260;2023-05-19T05:51:57;102878.19;;;13.49;100.00
44765;BME280;30484;52.382;5.260;2023-05-19T05:54:41;102879.81;;;13.54;100.00
44765;BME280;30484;52.382;5.260;2023-05-19T05:57:13;102880.94;;;13.47;100.00
44765;BME280;30484;52.382;5.260;2023-05-19T05:59:42;102875.81;;;13.38;100.00
44765;BME280;30484;52.382;5.260;2023-05-19T06:02:13;102876.19;;;13.24;100.00
44765;BME280;30484;52.382;5.260;2023-05-19T06:04:58;102879.00;;;13.80;100.00
44765;BME280;30484;52.382;5.260;2023-05-19T06:07:33;102874.53;;;13.81;100.00
44765;BME280;30484;52.382;5.260;2023-05-19T06:10:08;102878.97;;;13.52;100.00
44765;BME280;30484;52.382;5.260;2023-05-19T06:12:39;102878.19;;;14.07;100.00
44765;BME280;30484;52.382;5.260;2023-05-19T06:15:12;102876.63;;;14.00;100.00
44765;BME280;30484;52.382;5.260;2023-05-19T06:17:46;102881.19;;;14.51;100.00
44765;BME280;30484;52.382;5.260;2023-05-19T06:20:16;102877.81;;;14.18;100.00
44765;BME280;30484;52.382;5.260;2023-05-19T06:22:51;102879.00;;;14.09;100.00
44765;BME280;30484;52.382;5.260;2023-05-19T06:25:27;102872.19;;;14.52;100.00
44765;BME280;30484;52.382;5.260;2023-05-19T06:27:58;102871.06;;;14.59;100.00
44765;BME280;30484;52.382;5.260;2023-05-19T06:30:29;102877.38;;;14.58;100.00
44765;BME280;30484;52.382;5.260;2023-05-19T06:33:01;102875.31;;;14.92;100.00
44765;BME280;30484;52.382;5.260;2023-05-19T06:35:42;102865.44;;;14.92;100.00
44765;BME280;30484;52.382;5.260;2023-05-19T06:38:12;102873.41;;;15.19;100.00
44765;BME280;30484;52.382;5.260;2023-05-19T06:40:47;102873.78;;;15.10;100.00
44765;BME280;30484;52.382;5.260;2023-05-19T06:43:18;102863.03;;;15.33;100.00
44765;BME280;30484;52.382;5.260;2023-05-19T06:45:50;102871.00;;;15.59;100.00
44765;BME280;30484;52.382;5.260;2023-05-19T06:48:24;102871.06;;;15.57;100.00
44765;BME280;30484;52.382;5.260;2023-05-19T06:51:04;102870.25;;;15.79;100.00
44765;BME280;30484;52.382;5.260;2023-05-19T06:53:33;102865.44;;;15.87;100.00
44765;BME280;30484;52.382;5.260;2023-05-19T06:56:05;102867.34;;;15.85;100.00
44765;BME280;30484;52.382;5.260;2023-05-19T06:58:38;102872.59;;;16.10;100.00
44765;BME280;30484;52.382;5.260;2023-05-19T07:01:17;102873.97;;;16.20;100.00
44765;BME280;30484;52.382;5.260;2023-05-19T07:03:48;102878.66;;;15.93;100.00
44765;BME280;30484;52.382;5.260;2023-05-19T07:06:19;102866.91;;;16.38;100.00
44765;BME280;30484;52.382;5.260;2023-05-19T07:08:50;102872.88;;;16.67;100.00
44765;BME280;30484;52.382;5.260;2023-05-19T07:11:22;102864.63;;;16.50;100.00
44765;BME280;30484;52.382;5.260;2023-05-19T07:13:58;102862.69;;;16.74;100.00
44765;BME280;30484;52.382;5.260;2023-05-19T07:16:33;102860.03;;;16.95;100.00
44765;BME280;30484;52.382;5.260;2023-05-19T07:19:08;102868.19;;;16.93;100.00
44765;BME280;30484;52.382;5.260;2023-05-19T07:21:41;102873.59;;;16.93;100.00
44765;BME280;30484;52.382;5.260;2023-05-19T07:24:11;102869.28;;;17.48;100.00
44765;BME280;30484;52.382;5.260;2023-05-19T07:26:45;102867.59;;;17.64;100.00
44765;BME280;30484;52.382;5.260;2023-05-19T07:29:16;102864.69;;;17.69;100.00
44765;BME280;30484;52.382;5.260;2023-05-19T07:31:46;102860.81;;;17.74;100.00
44765;BME280;30484;52.382;5.260;2023-05-19T07:34:16;102862.69;;;18.10;100.00
44765;BME280;30484;52.382;5.260;2023-05-19T07:36:47;102859.53;;;18.37;100.00
44765;BME280;30484;52.382;5.260;2023-05-19T07:39:19;102869.88;;;18.29;100.00
44765;BME280;30484;52.382;5.260;2023-05-19T07:41:49;102861.56;;;18.85;100.00
44765;BME280;30484;52.382;5.260;2023-05-19T07:44:23;102866.09;;;19.35;100.00
44765;BME280;30484;52.382;5.260;2023-05-19T07:46:54;102866.50;;;19.11;100.00
44765;BME280;30484;52.382;5.260;2023-05-19T07:49:23;102858.84;;;19.20;100.00
44765;BME280;30484;52.382;5.260;2023-05-19T07:51:53;102862.88;;;19.76;100.00
44765;BME280;30484;52.382;5.260;2023-05-19T07:54:29;102858.03;;;19.83;100.00
44765;BME280;30484;52.382;5.260;2023-05-19T07:57:00;102865.88;;;20.20;100.00
44765;BME280;30484;52.382;5.260;2023-05-19T07:59:31;102857.31;;;20.11;100.00
44765;BME280;30484;52.382;5.260;2023-05-19T08:02:08;102854.91;;;20.21;100.00
44765;BME280;30484;52.382;5.260;2023-05-19T08:04:41;102856.88;;;20.03;100.00
44765;BME280;30484;52.382;5.260;2023-05-19T08:07:11;102849.25;;;20.40;100.00
44765;BME280;30484;52.382;5.260;2023-05-19T08:09:40;102847.34;;;19.64;100.00
44765;BME280;30484;52.382;5.260;2023-05-19T08:12:13;102842.41;;;20.18;100.00
44765;BME280;30484;52.382;5.260;2023-05-19T08:14:43;102845.28;;;20.46;100.00
44765;BME280;30484;52.382;5.260;2023-05-19T08:17:14;102849.25;;;20.40;100.00
44765;BME280;30484;52.382;5.260;2023-05-19T08:19:47;102841.13;;;20.55;100.00
44765;BME280;30484;52.382;5.260;2023-05-19T08:22:19;102842.41;;;20.63;100.00
44765;BME280;30484;52.382;5.260;2023-05-19T08:24:48;102833.91;;;20.39;100.00
44765;BME280;30484;52.382;5.260;2023-05-19T08:27:33;102833.97;;;20.23;100.00
44765;BME280;30484;52.382;5.260;2023-05-19T08:30:03;102839.78;;;20.62;100.00
44765;BME280;30484;52.382;5.260;2023-05-19T08:32:37;102838.69;;;20.80;100.00
44765;BME280;30484;52.382;5.260;2023-05-19T08:35:11;102836.78;;;21.11;100.00
44765;BME280;30484;52.382;5.260;2023-05-19T08:37:40;102833.94;;;20.09;100.00
44765;BME280;30484;52.382;5.260;2023-05-19T08:40:16;102834.25;;;20.49;100.00
44765;BME280;30484;52.382;5.260;2023-05-19T08:42:50;102838.63;;;20.51;100.00
44765;BME280;30484;52.382;5.260;2023-05-19T08:45:22;102823.06;;;20.09;100.00
44765;BME280;30484;52.382;5.260;2023-05-19T08:47:54;102821.78;;;20.61;100.00
44765;BME280;30484;52.382;5.260;2023-05-19T08:50:32;102820.09;;;20.44;100.00
44765;BME280;30484;52.382;5.260;2023-05-19T08:53:09;102816.09;;;20.80;100.00
44765;BME280;30484;52.382;5.260;2023-05-19T08:56:04;102814.44;;;20.77;100.00
44765;BME280;30484;52.382;5.260;2023-05-19T08:58:41;102807.28;;;20.46;100.00
44765;BME280;30484;52.382;5.260;2023-05-19T09:01:14;102809.66;;;20.66;100.00
44765;BME280;30484;52.382;5.260;2023-05-19T09:03:47;102804.06;;;20.84;100.00
44765;BME280;30484;52.382;5.260;2023-05-19T09:06:20;102806.09;;;20.80;100.00
44765;BME280;30484;52.382;5.260;2023-05-19T09:08:52;102802.59;;;21.21;100.00
44765;BME280;30484;52.382;5.260;2023-05-19T09:11:23;102808.44;;;21.01;100.00
44765;BME280;30484;52.382;5.260;2023-05-19T09:13:57;102807.50;;;21.44;100.00
44765;BME280;30484;52.382;5.260;2023-05-19T09:16:27;102806.59;;;20.87;100.00
44765;BME280;30484;52.382;5.260;2023-05-19T09:19:02;102796.97;;;20.96;100.00
44765;BME280;30484;52.382;5.260;2023-05-19T09:21:35;102802.41;;;20.81;100.00
44765;BME280;30484;52.382;5.260;2023-05-19T09:24:08;102798.72;;;20.97;100.00
44765;BME280;30484;52.382;5.260;2023-05-19T09:26:41;102789.88;;;20.93;100.00
44765;BME280;30484;52.382;5.260;2023-05-19T09:29:14;102786.13;;;21.66;100.00
44765;BME280;30484;52.382;5.260;2023-05-19T09:31:48;102791.44;;;21.68;100.00
44765;BME280;30484;52.382;5.260;2023-05-19T09:34:18;102803.13;;;22.23;100.00
44765;BME280;30484;52.382;5.260;2023-05-19T09:36:51;102795.63;;;22.27;100.00
44765;BME280;30484;52.382;5.260;2023-05-19T09:39:25;102798.53;;;22.64;100.00
44765;BME280;30484;52.382;5.260;2023-05-19T09:41:56;102796.25;;;22.57;100.00
44765;BME280;30484;52.382;5.260;2023-05-19T09:44:27;102787.97;;;22.33;100.00
44765;BME280;30484;52.382;5.260;2023-05-19T09:46:59;102791.81;;;22.16;100.00
44765;BME280;30484;52.382;5.260;2023-05-19T09:49:33;102788.63;;;22.63;100.00
44765;BME280;30484;52.382;5.260;2023-05-19T09:52:04;102788.06;;;22.96;100.00
44765;BME280;30484;52.382;5.260;2023-05-19T09:54:41;102793.84;;;22.66;100.00
44765;BME280;30484;52.382;5.260;2023-05-19T09:57:10;102789.75;;;23.10;100.00
44765;BME280;30484;52.382;5.260;2023-05-19T09:59:44;102796.28;;;22.30;93.78
44765;BME280;30484;52.382;5.260;2023-05-19T10:02:16;102796.91;;;22.74;83.08
44765;BME280;30484;52.382;5.260;2023-05-19T10:04:51;102794.59;;;23.06;87.76
44765;BME280;30484;52.382;5.260;2023-05-19T10:07:22;102784.81;;;22.78;80.97
44765;BME280;30484;52.382;5.260;2023-05-19T10:09:54;102786.09;;;22.98;75.96
44765;BME280;30484;52.382;5.260;2023-05-19T10:12:30;102788.63;;;22.63;77.87
44765;BME280;30484;52.382;5.260;2023-05-19T10:15:08;102787.31;;;23.68;81.40
44765;BME280;30484;52.382;5.260;2023-05-19T10:17:42;102779.38;;;23.65;71.96
44765;BME280;30484;52.382;5.260;2023-05-19T10:20:14;102770.75;;;24.07;77.94
44765;BME280;30484;52.382;5.260;2023-05-19T10:22:45;102784.16;;;23.74;84.04
44765;BME280;30484;52.382;5.260;2023-05-19T10:25:15;102779.16;;;24.28;66.47
44765;BME280;30484;52.382;5.260;2023-05-19T10:27:54;102783.38;;;22.85;62.91
44765;BME280;30484;52.382;5.260;2023-05-19T10:30:40;102774.88;;;24.12;66.66
44765;BME280;30484;52.382;5.260;2023-05-19T10:33:16;102773.69;;;24.28;70.41
44765;BME280;30484;52.382;5.260;2023-05-19T10:36:04;102771.84;;;23.69;67.61
44765;BME280;30484;52.382;5.260;2023-05-19T10:38:50;102757.09;;;24.54;67.70
44765;BME280;30484;52.382;5.260;2023-05-19T10:41:40;102765.38;;;23.94;61.74
44765;BME280;30484;52.382;5.260;2023-05-19T10:44:30;102765.53;;;24.51;62.22
44765;BME280;30484;52.382;5.260;2023-05-19T10:47:13;102750.75;;;24.53;61.58
44765;BME280;30484;52.382;5.260;2023-05-19T10:49:44;102756.66;;;24.13;60.88
44765;BME280;30484;52.382;5.260;2023-05-19T10:52:22;102757.06;;;23.71;62.31
44765;BME280;30484;52.382;5.260;2023-05-19T10:54:54;102748.19;;;24.05;59.62
44765;BME280;30484;52.382;5.260;2023-05-19T10:57:26;102743.81;;;24.49;69.91
44765;BME280;30484;52.382;5.260;2023-05-19T10:59:58;102757.59;;;24.47;57.65
44765;BME280;30484;52.382;5.260;2023-05-19T11:02:41;102748.59;;;23.39;60.70
44765;BME280;30484;52.382;5.260;2023-05-19T11:05:13;102745.34;;;24.76;65.32
44765;BME280;30484;52.382;5.260;2023-05-19T11:07:58;102751.66;;;24.88;65.06
44765;BME280;30484;52.382;5.260;2023-05-19T11:10:33;102737.28;;;24.63;60.22
44765;BME280;30484;52.382;5.260;2023-05-19T11:13:04;102740.97;;;24.04;60.96
44765;BME280;30484;52.382;5.260;2023-05-19T11:15:36;102740.19;;;24.37;56.28
44765;BME280;30484;52.382;5.260;2023-05-19T11:18:07;102734.59;;;25.07;55.23
44765;BME280;30484;52.382;5.260;2023-05-19T11:20:40;102734.50;;;25.08;57.78
44765;BME280;30484;52.382;5.260;2023-05-19T11:23:15;102740.59;;;24.67;59.29
44765;BME280;30484;52.382;5.260;2023-05-19T11:25:51;102736.75;;;24.92;57.81
44765;BME280;30484;52.382;5.260;2023-05-19T11:28:23;102741.28;;;25.25;60.59
44765;BME280;30484;52.382;5.260;2023-05-19T11:30:58;102736.63;;;24.71;54.63
44765;BME280;30484;52.382;5.260;2023-05-19T11:33:35;102730.16;;;24.94;57.73
44765;BME280;30484;52.382;5.260;2023-05-19T11:36:12;102730.53;;;25.56;59.67
44765;BME280;30484;52.382;5.260;2023-05-19T11:38:45;102735.28;;;25.54;55.52
44765;BME280;30484;52.382;5.260;2023-05-19T11:41:16;102724.53;;;25.19;53.40
44765;BME280;30484;52.382;5.260;2023-05-19T11:43:51;102723.63;;;25.41;60.57
44765;BME280;30484;52.382;5.260;2023-05-19T11:46:20;102714.81;;;25.91;66.29
44765;BME280;30484;52.382;5.260;2023-05-19T11:48:53;102725.03;;;25.67;63.60
44765;BME280;30484;52.382;5.260;2023-05-19T11:51:27;102723.03;;;25.26;59.09
44765;BME280;30484;52.382;5.260;2023-05-19T11:53:59;102725.13;;;26.41;65.26
44765;BME280;30484;52.382;5.260;2023-05-19T11:56:33;102723.47;;;26.28;66.54
44765;BME280;30484;52.382;5.260;2023-05-19T11:59:07;102716.22;;;25.85;60.06
44765;BME280;30484;52.382;5.260;2023-05-19T12:01:41;102714.72;;;26.65;59.02
44765;BME280;30484;52.382;5.260;2023-05-19T12:04:17;102713.44;;;25.43;57.53
44765;BME280;30484;52.382;5.260;2023-05-19T12:06:58;102718.97;;;25.85;60.59
44765;BME280;30484;52.382;5.260;2023-05-19T12:09:30;102711.47;;;25.66;68.68
44765;BME280;30484;52.382;5.260;2023-05-19T12:12:13;102713.88;;;26.13;69.71
44765;BME280;30484;52.382;5.260;2023-05-19T12:14:56;102720.28;;;26.23;66.78
44765;BME280;30484;52.382;5.260;2023-05-19T12:17:34;102713.34;;;26.71;72.65
44765;BME280;30484;52.382;5.260;2023-05-19T12:20:17;102715.25;;;26.59;69.66
44765;BME280;30484;52.382;5.260;2023-05-19T12:22:57;102705.81;;;25.79;67.59
44765;BME280;30484;52.382;5.260;2023-05-19T12:25:38;102697.47;;;26.44;68.84
44765;BME280;30484;52.382;5.260;2023-05-19T12:28:20;102693.63;;;26.25;62.05
44765;BME280;30484;52.382;5.260;2023-05-19T12:31:09;102697.94;;;26.59;56.53
44765;BME280;30484;52.382;5.260;2023-05-19T12:33:43;102695.25;;;26.38;60.39
44765;BME280;30484;52.382;5.260;2023-05-19T12:36:22;102698.34;;;26.85;64.22
44765;BME280;30484;52.382;5.260;2023-05-19T12:39:01;102691.72;;;27.48;64.01
44765;BME280;30484;52.382;5.260;2023-05-19T12:41:35;102688.03;;;27.28;58.60
44765;BME280;30484;52.382;5.260;2023-05-19T12:44:16;102688.31;;;27.15;57.60
44765;BME280;30484;52.382;5.260;2023-05-19T12:46:52;102691.13;;;27.54;60.88
44765;BME280;30484;52.382;5.260;2023-05-19T12:49:26;102682.88;;;26.74;54.70
44765;BME280;30484;52.382;5.260;2023-05-19T12:52:00;102680.25;;;27.33;54.10
44765;BME280;30484;52.382;5.260;2023-05-19T12:54:37;102679.34;;;27.03;54.57
44765;BME280;30484;52.382;5.260;2023-05-19T12:57:15;102684.63;;;27.65;57.19
44765;BME280;30484;52.382;5.260;2023-05-19T12:59:52;102682.06;;;26.93;57.09
44765;BME280;30484;52.382;5.260;2023-05-19T13:02:23;102681.75;;;27.47;58.47
44765;BME280;30484;52.382;5.260;2023-05-19T13:05:07;102689.63;;;27.20;56.08
44765;BME280;30484;52.382;5.260;2023-05-19T13:07:41;102683.75;;;27.84;57.95
44765;BME280;30484;52.382;5.260;2023-05-19T13:10:18;102682.91;;;27.73;53.45
44765;BME280;30484;52.382;5.260;2023-05-19T13:12:55;102679.09;;;28.04;55.73
44765;BME280;30484;52.382;5.260;2023-05-19T13:15:29;102679.09;;;27.94;54.84
44765;BME280;30484;52.382;5.260;2023-05-19T13:18:03;102668.25;;;28.50;52.02
44765;BME280;30484;52.382;5.260;2023-05-19T13:20:41;102663.44;;;28.24;51.24
44765;BME280;30484;52.382;5.260;2023-05-19T13:23:13;102661.78;;;28.97;52.43